Αναφορές METAR

 

LGTS - Thessaloniki/Mik, Greece
Απόσταση από το σταθμό: ΝΝΔ 77km
Ενημερώθηκε: 23/04/2017 12:20
Αίθριος
Αίθριος
 Ανεμος από Δ
Ανεμος: Δ 13 km/h
Θερμοκρασία: 17°C
Σημείο Δρόσου: 2°C
Υγρασία: 37%
Βαρόμετρο: 1016 hPa
Summary: Αίθριος
Ορατότητα: greater than 10 km
2017/04/23 09:20 LGTS 230920Z 27007KT CAVOK 17/02 Q1016 NOSIG
LGKV - Kavala/Chrisoupo, Greece
Απόσταση από το σταθμό: ΑΝΑ 120km
Ενημερώθηκε: 23/04/2017 12:50
Διάσπαρτα Νέφη
Διάσπαρτα Νέφη
 Ανεμος από ΝΝΔ
Ανεμος: ΝΝΔ 26 km/h
Θερμοκρασία: 16°C
Σημείο Δρόσου: 5°C
Υγρασία: 48%
Βαρόμετρο: 1014 hPa
Νέφωση: Διάσπαρτα Νέφη
Ορατότητα: 10 km
Λεπτομέρειες νέφωσης: Διάσπαρτα Νέφη 914 m
2017/04/23 09:50 LGKV 230950Z 21014KT 9999 FEW030 16/05 Q1014
 
LGKZ - Kozani (civ/Army, Greece
Απόσταση από το σταθμό: ΝΔ 154km
Ενημερώθηκε: 23/04/2017 12:50
Αίθριος
Αίθριος
 Ανεμος από ΑΝΑ
Ανεμος: ΑΝΑ 7 km/h
Θερμοκρασία: 13°C
Σημείο Δρόσου: -1°C
Υγρασία: 38%
Βαρόμετρο: 1017 hPa
Summary: Αίθριος
Ορατότητα: greater than 10 km
2017/04/23 09:50 LGKZ 230950Z 12004KT CAVOK 13/M01 Q1017
LWSK - Skopje/Petrovac, Macedonia
Απόσταση από το σταθμό: ΔΒΔ 159km
Ενημερώθηκε: 23/04/2017 12:30
Μερικώς Νεφελώδης
Μερικώς Νεφελώδης
 Ανεμος από ΒΒΑ
Ανεμος: ΒΒΑ 7 km/h
Θερμοκρασία: 16°C
Σημείο Δρόσου: 1°C
Υγρασία: 36%
Βαρόμετρο: 1016 hPa
Νέφωση: Μερικώς Νεφελώδης
Ορατότητα: 10 km
Λεπτομέρειες νέφωσης: Διάσπαρτα Νέφη 1524 m
Μερικώς Νεφελώδης 3048 m
2017/04/23 09:30 LWSK 230930Z 03004KT 9999 FEW050 SCT100 16/01 Q1016 NOSIG
 
LBSF - Sofia (observato, Bulgaria
Απόσταση από το σταθμό: Β 164km
Ενημερώθηκε: 23/04/2017 12:30
Κυρίως Νεφελώδης
Κυρίως Νεφελώδης
 Ανεμος από Δ
Ανεμος: Δ 28 km/h
Θερμοκρασία: 14°C
Σημείο Δρόσου: 3°C
Υγρασία: 48%
Βαρόμετρο: 1014 hPa
Νέφωση: Κυρίως Νεφελώδης
Ορατότητα: 10 km
Λεπτομέρειες νέφωσης: Κυρίως Νεφελώδης 1981 m
2017/04/23 09:30 LBSF 230930Z 28015KT 250V310 9999 BKN065 14/03 Q1014 NOSIG
LBPD - Plovdiv, Bulgaria
Απόσταση από το σταθμό: ΒΑ 168km
Ενημερώθηκε: 23/04/2017 12:30
Διάσπαρτα Νέφη
Διάσπαρτα Νέφη
 Ανεμος από ΔΒΔ
Ανεμος: ΔΒΔ 31 km/h
Θερμοκρασία: 18°C
Σημείο Δρόσου: 3°C
Υγρασία: 37%
Βαρόμετρο: 1013 hPa
Νέφωση: Διάσπαρτα Νέφη
Ορατότητα: 10 km
Λεπτομέρειες νέφωσης: Διάσπαρτα Νέφη 1829 m
2017/04/23 09:30 LBPD 230930Z AUTO 29017KT 9999 FEW060/// 18/03 Q1013 NOSIG
 
LWOH - Ohrid, Macedonia
Απόσταση από το σταθμό: Δ 204km
Ενημερώθηκε: 23/04/2017 13:00
Διάσπαρτα Νέφη
Διάσπαρτα Νέφη
 Ανεμος από ΝΑ
Ανεμος: ΝΑ 11 km/h
Θερμοκρασία: 11°C
Σημείο Δρόσου: 0°C
Υγρασία: 47%
Βαρόμετρο: 1017 hPa
Νέφωση: Διάσπαρτα Νέφη
Ορατότητα: 10 km
Λεπτομέρειες νέφωσης: Διάσπαρτα Νέφη 1219 m
2017/04/23 10:00 LWOH 231000Z 14006KT 120V190 9999 FEW040 11/00 Q1017
LGLM - Limnos Island Ar, Greece
Απόσταση από το σταθμό: ΝΑ 220km
Ενημερώθηκε: 23/04/2017 12:50
Διάσπαρτα Νέφη
Διάσπαρτα Νέφη
 Ανεμος από ΔΝΔ
Ανεμος: ΔΝΔ 19 km/h
Θερμοκρασία: 18°C
Σημείο Δρόσου: 3°C
Υγρασία: 37%
Βαρόμετρο: 1015 hPa
Νέφωση: Διάσπαρτα Νέφη
Ορατότητα: 10 km
Λεπτομέρειες νέφωσης: Διάσπαρτα Νέφη 610 m
2017/04/23 09:50 LGLM 230950Z 25010KT 9999 FEW020 18/03 Q1015
 
LGBL - Nea Anchialos, Greece
Απόσταση από το σταθμό: Ν 221km
Ενημερώθηκε: 23/04/2017 12:50
Αίθριος
Αίθριος
 Ανεμος από ΔΒΔ
Ανεμος: ΔΒΔ 17 km/h
Θερμοκρασία: 20°C
Σημείο Δρόσου: 0°C
Υγρασία: 26%
Βαρόμετρο: 1016 hPa
Summary: Αίθριος
Ορατότητα: greater than 10 km
2017/04/23 09:50 LGBL 230950Z 30009KT CAVOK 20/00 Q1016
LGSK - Skiathos Island, Greece
Απόσταση από το σταθμό: Ν 223km
Ενημερώθηκε: 23/04/2017 12:50
Αίθριος
Αίθριος
 Ανεμος από ΒΒΑ
Ανεμος: ΒΒΑ 11 km/h
Θερμοκρασία: 17°C
Σημείο Δρόσου: 1°C
Υγρασία: 34%
Βαρόμετρο: 1017 hPa
Summary: Αίθριος
Ορατότητα: greater than 10 km
2017/04/23 09:50 LGSK 230950Z 03006KT CAVOK 17/01 Q1017
 
LGAL - Alexandroupolis, Greece
Απόσταση από το σταθμό: Α 231km
Ενημερώθηκε: 23/04/2017 12:50
Διάσπαρτα Νέφη
Διάσπαρτα Νέφη
 Ανεμος από ΝΔ
Ανεμος: ΝΔ 17 km/h
Θερμοκρασία: 14°C
Σημείο Δρόσου: 3°C
Υγρασία: 48%
Βαρόμετρο: 1014 hPa
Νέφωση: Διάσπαρτα Νέφη
Ορατότητα: 10 km
Λεπτομέρειες νέφωσης: Διάσπαρτα Νέφη 1067 m
2017/04/23 09:50 LGAL 230950Z 22009KT 9999 FEW035 14/03 Q1014
BKPR - Prishtina, Yugoslavia
Απόσταση από το σταθμό: ΒΔ 240km
Ενημερώθηκε: 23/04/2017 12:30
Μερικώς Νεφελώδης
Μερικώς Νεφελώδης
 Ανεμος από ΔΒΔ
Ανεμος: ΔΒΔ 11 km/h
Θερμοκρασία: 14°C
Σημείο Δρόσου: -1°C
Υγρασία: 36%
Βαρόμετρο: 1016 hPa
Νέφωση: Μερικώς Νεφελώδης
Ορατότητα: 10 km
Λεπτομέρειες νέφωσης: Διάσπαρτα Νέφη 1524 m
Μερικώς Νεφελώδης 4877 m
2017/04/23 09:30 BKPR 230930Z 29006KT 250V340 9999 FEW050 SCT160 14/M01 Q1016 NOSIG
 
LGIO - Ioannina, Greece
Απόσταση από το σταθμό: ΝΔ 262km
Ενημερώθηκε: 23/04/2017 12:50
Αίθριος
Αίθριος
 Ανεμος από μεταβλητός
Ανεμος: μεταβλητός 0 km/h
Θερμοκρασία: 15°C
Σημείο Δρόσου: 2°C
Υγρασία: 42%
Βαρόμετρο: 1021 hPa
Summary: Αίθριος
Ορατότητα: greater than 10 km
2017/04/23 09:50 LGIO 230950Z /////KT CAVOK 15/02 Q1021
LYNI - Nis, Yugoslavia
Απόσταση από το σταθμό: ΒΒΔ 262km
Ενημερώθηκε: 23/04/2017 12:30
Ασθενής Βροχή, Κυρίως Νεφελώδης
Ασθενής Βροχή, Κυρίως Νεφελώδης
 Ανεμος από ΒΔ
Ανεμος: ΒΔ 33 km/h
Θερμοκρασία: 7°C
Wind Chill: 3°C
Σημείο Δρόσου: 5°C
Υγρασία: 87%
Βαρόμετρο: 1018 hPa
Summary: Ασθενής Βροχή
Νέφωση: Κυρίως Νεφελώδης
Ορατότητα: 10 km
Λεπτομέρειες νέφωσης: Μερικώς Νεφελώδης 518 m
Κυρίως Νεφελώδης 914 m
2017/04/23 09:30 LYNI 230930Z 32018KT 9999 -RA SCT017 BKN030 07/05 Q1018 NOSIG
 
LGSY - Skiros, Greece
Απόσταση από το σταθμό: ΝΝΑ 268km
Ενημερώθηκε: 23/04/2017 11:50
Διάσπαρτα Νέφη
Διάσπαρτα Νέφη
 Ανεμος από ΔΝΔ
Ανεμος: ΔΝΔ 20 km/h
Θερμοκρασία: 15°C
Σημείο Δρόσου: 4°C
Υγρασία: 48%
Βαρόμετρο: 1016 hPa
Νέφωση: Διάσπαρτα Νέφη
Ορατότητα: 10 km
Λεπτομέρειες νέφωσης: Διάσπαρτα Νέφη 762 m
2017/04/23 08:50 LGSY 230850Z 25011KT 9999 FEW025 15/04 Q1016 BLU
LATI - Tirana, Albania
Απόσταση από το σταθμό: Δ 290km
Ενημερώθηκε: 23/04/2017 12:50
Μερικώς Νεφελώδης
Μερικώς Νεφελώδης
 Ανεμος από Α
Ανεμος: Α 6 km/h
Θερμοκρασία: 17°C
Σημείο Δρόσου: 3°C
Υγρασία: 39%
Βαρόμετρο: 1018 hPa
Νέφωση: Μερικώς Νεφελώδης
Ορατότητα: 10 km
Λεπτομέρειες νέφωσης: Διάσπαρτα Νέφη 914 m
Μερικώς Νεφελώδης 4572 m
2017/04/23 09:50 LATI 230950Z 10003KT 040V170 9999 FEW030 SCT150 17/03 Q1018 NOSIG
 
LBGO - Gorna Orechovist, Bulgaria
Απόσταση από το σταθμό: ΒΑ 300km
Ενημερώθηκε: 23/04/2017 12:30
Διάσπαρτα Νέφη
Διάσπαρτα Νέφη
 Ανεμος από ΔΒΔ
Ανεμος: ΔΒΔ 30 km/h
Θερμοκρασία: 16°C
Σημείο Δρόσου: 5°C
Υγρασία: 48%
Βαρόμετρο: 1012 hPa
Νέφωση: Διάσπαρτα Νέφη
Ορατότητα: 10 km
Λεπτομέρειες νέφωσης: Διάσπαρτα Νέφη 1433 m
2017/04/23 09:30 LBGO 230930Z AUTO 29016KT 9999 FEW047/// 16/05 Q1012 NOSIG
LGPZ - Preveza/Aktion, Greece
Απόσταση από το σταθμό: ΝΔ 328km
Ενημερώθηκε: 23/04/2017 12:50
Διάσπαρτα Νέφη
Διάσπαρτα Νέφη
 Ανεμος από Δ
Ανεμος: Δ 13 km/h
Θερμοκρασία: 17°C
Σημείο Δρόσου: 5°C
Υγρασία: 45%
Βαρόμετρο: 1019 hPa
Νέφωση: Διάσπαρτα Νέφη
Ορατότητα: 10 km
Λεπτομέρειες νέφωσης: Διάσπαρτα Νέφη 1067 m
2017/04/23 09:50 LGPZ 230950Z 26007KT 9999 FEW035 17/05 Q1019
 
LGKR - Ioannis Kapodist, Greece
Απόσταση από το σταθμό: ΔΝΔ 330km
Ενημερώθηκε: 23/04/2017 12:20
Διάσπαρτα Νέφη
Διάσπαρτα Νέφη
 Ανεμος από ΝΝΑ
Ανεμος: ΝΝΑ 13 km/h
Θερμοκρασία: 18°C
Σημείο Δρόσου: 6°C
Υγρασία: 46%
Βαρόμετρο: 1019 hPa
Νέφωση: Διάσπαρτα Νέφη
Ορατότητα: 10 km
Λεπτομέρειες νέφωσης: Διάσπαρτα Νέφη 762 m
2017/04/23 09:20 LGKR 230920Z 15007KT 9999 FEW025 18/06 Q1019 NOSIG
LGEL - Elefsis (hel-Afb, Greece
Απόσταση από το σταθμό: Ν 347km
Ενημερώθηκε: 23/04/2017 12:50
Διάσπαρτα Νέφη
Διάσπαρτα Νέφη
 Ανεμος από Δ
Ανεμος: Δ 19 km/h
Θερμοκρασία: 20°C
Σημείο Δρόσου: -2°C
Υγρασία: 23%
Βαρόμετρο: 1017 hPa
Νέφωση: Διάσπαρτα Νέφη
Ορατότητα: 10 km
Λεπτομέρειες νέφωσης: Διάσπαρτα Νέφη 914 m
2017/04/23 09:50 LGEL 230950Z 28010KT 9999 FEW030 20/M02 Q1017


 ♦     ♦     ♦     Ποτέ μη βασίζετε κρίσιμες αποφάσεις σ'αυτές ή οποιεσδήποτε πληροφορίες καιρού από το Internet     ♦     ♦     ♦